This is the latest recevied weather packets stored in our database for station/object N5BTB-10. If no packets are shown the sender has not sent any weather packets the latest 10 day(s).
| Time | Temp. | Humidity | Pressure | Rain* | Wind** | Luminosity | Snow |
|---|---|---|---|---|---|---|---|
| 1777683606 | 14.44° C | 70% | - | 0 mm | - | - | - |
| 1777680006 | 16.67° C | 68% | - | 0 mm | - | - | - |
| 1777676406 | 18.33° C | 65% | - | 0 mm | - | - | - |
| 1777672806 | 19.44° C | 62% | - | 0 mm | - | - | - |
| 1777669205 | 20° C | 60% | - | 0 mm | - | - | - |
| 1777665605 | 19.44° C | 53% | - | 0 mm | - | - | - |
| 1777662005 | 17.78° C | 58% | - | 0 mm | - | - | - |
| 1777658405 | 16.11° C | 64% | - | 0 mm | - | - | - |
| 1777654805 | 13.89° C | 72% | - | 0 mm | - | - | - |
| 1777651205 | 12.78° C | 77% | - | 0 mm | - | - | - |
| 1777647605 | 11.67° C | 82% | - | 0 mm | - | - | - |
| 1777644005 | 10.56° C | 86% | - | 0 mm | - | - | - |
| 1777640405 | 10° C | 89% | - | 0 mm | - | - | - |
| 1777636805 | 9.44° C | 91% | - | 0 mm | - | - | - |
| 1777633205 | 9.44° C | 89% | - | 0 mm | - | - | - |
| 1777629605 | 10° C | 85% | - | 0 mm | - | - | - |
| 1777626005 | 11.11° C | 82% | - | 0 mm | - | - | - |
| 1777622405 | 11.11° C | 82% | - | 0 mm | - | - | - |
| 1777618805 | 11.67° C | 78% | - | 0 mm | - | - | - |
| 1777615205 | 12.78° C | 73% | - | 0 mm | - | - | - |
| 1777611605 | 15° C | 70% | - | 0 mm | - | - | - |
| 1777608005 | 16.11° C | 69% | - | 0 mm | - | - | - |
| 1777604405 | 20° C | 58% | - | 0 mm | - | - | - |
| 1777600805 | 22.78° C | 36% | - | 0 mm | - | - | - |
| 1777597205 | 23.89° C | 32% | - | 0 mm | - | - | - |
* Rain latest hour (hover to see other rain measurements)
** Current wind speed in m/s (hover to see current wind gust speed)